Stevensville, MT

1:10 AM MDT on October 26, 2014 (GMT -0600)
MPG Ranch - Orchard House | Change Station
CLOSE
Current Station
Personal Weather Station
Location: Florence, MT
Elevation: 3392 ft
Nearby Weather Stations

Elev 3392 ft 46.68 °N, 114.03 °W | Updated 10 minutes ago

Partly Cloudy
Partly Cloudy
47.2 °F
Feels Like 46 °F
N
4.0
Wind Variable Wind from ESE
Gusts 8.0 mph

Today
High -- | Low -- °F
--% Chance of Precip.
Yesterday
High -- | Low -- °F
Precip. -- in
8:09 AM 6:30 PM
Waxing Crescent, 6% visible
Pressure 29.69 in
Visibility 10.0 miles
Clouds Scattered Clouds 8500 ft
Windchill 46 °F
Dew Point 41 °F
Humidity 80%
Rainfall 0.00 in
Snow Depth Not available.
UV 0.0 out of 12
Pollen 1.40 out of 12
Air Quality Not available.
Flu Activity No Activity
METAR KMSO 260653Z AUTO 25003KT 10SM SCT085 06/04 A2967 RMK AO2 SLP052 T00610044 401170039

More Conditions Fewer Conditions

Pressure 29.69 in
Visibility 10.0 miles
Clouds Scattered Clouds 8500 ft
Windchill 46 °F
Dew Point 41 °F
Humidity 80%
Rainfall 0.00 in
Snow Depth Not available.
UV 0.0 out of 12
Pollen 1.40 out of 12
Air Quality Not available.
Flu Activity No Activity
METAR KMSO 260653Z AUTO 25003KT 10SM SCT085 06/04 A2967 RMK AO2 SLP052 T00610044 401170039

More Conditions Fewer Conditions

10-Day Weather Forecast

Almanac

Astronomy

Oct. 26, 2014 Rise Set
Actual Time 8:09 AM MDT 6:30 PM MDT
Civil Twilight 7:38 AM MDT 7:01 PM MDT
Nautical Twilight 7:02 AM MDT 7:36 PM MDT
Astronomical Twilight 6:27 AM MDT 8:11 PM MDT
Moon 10:57 AM MDT 8:38 PM MDT
Length of Visible Light 11h 23m
Length of Day
10h 20m
Tomorrow will be 3m 3s shorter.
Waxing Crescent, 6% of the Moon is Illuminated
Today
Waxing Crescent
Oct 30
First Quarter
Nov 6
Full
Nov 14
Last Quarter
Nov 22
New

Today's Extremes

State Highs State Lows

Community

WunderPhotos

Upload Photos

1,765,115 photos uploaded!

Nearby

Snow Depth

Station Depth Elevation
Daly Creek 0 in 5780 ft
Black Pine 1 in 7210 ft
Combination 0 in 5600 ft
Twelvemile Creek 1 in 5600 ft
Stuart Mountain 1 in 7400 ft

Earthquake Activity

City Distance Mag. Time & Date
No recent earthquake activity has been reported nearby.
Minimum magnitude displayed is 2.5.

Coastal Water Temperatures

Place Temperature
No Stations Reporting

Nearby Weather Stations